Time;durP1;ratioP1;P1;durP2;ratioP2;P2;SDS_P1;SDS_P2;PMS_P1;PMS_P2;Temp;Humidity;BMP_temperature;BMP_pressure;BME280_temperature;BME280_humidity;BME280_pressure;Samples;Min_cycle;Max_cycle;Signal;HPM_P1;HPM_P2
2021/10/04 00:02:03;;;;;;;8.98;8.03;;;;;;;12.41;77.69;99417.83;1744498;81;21507;-65
2021/10/04 00:04:30;;;;;;;10.75;8.40;;;;;;;12.41;77.78;99417.83;1745217;81;21039;-65
2021/10/04 00:06:57;;;;;;;10.53;7.97;;;;;;;12.42;77.76;99418.20;1746762;81;21022;-65
2021/10/04 00:09:25;;;;;;;9.68;8.40;;;;;;;12.42;77.79;99423.44;1746437;81;20979;-65
2021/10/04 00:11:52;;;;;;;8.90;8.00;;;;;;;12.43;77.81;99425.11;1746116;81;20986;-65
2021/10/04 00:14:20;;;;;;;8.83;8.03;;;;;;;12.43;77.83;99436.89;1724599;81;21454;-65
2021/10/04 00:16:50;;;;;;;11.05;8.80;;;;;;;12.43;77.87;99434.27;1746490;81;20993;-65
2021/10/04 00:19:17;;;;;;;14.70;8.48;;;;;;;12.42;77.89;99443.07;1759532;80;21062;-65
2021/10/04 00:21:44;;;;;;;10.45;9.33;;;;;;;12.43;77.90;99444.27;1742612;80;21115;-65
2021/10/04 00:24:11;;;;;;;12.35;8.65;;;;;;;12.43;77.85;99436.89;1747889;81;21001;-65
2021/10/04 00:26:38;;;;;;;13.25;8.53;;;;;;;12.41;77.87;99442.23;1742742;80;21423;-65
2021/10/04 00:29:05;;;;;;;13.90;8.33;;;;;;;12.38;77.92;99446.79;1728144;81;21576;-65
2021/10/04 00:31:32;;;;;;;10.20;7.95;;;;;;;12.36;77.95;99453.91;1732567;81;21030;-65
2021/10/04 00:34:00;;;;;;;;;;;;;;;12.36;77.98;99451.30;1768621;80;20986;-65
2021/10/04 00:36:27;;;;;;;11.70;8.98;;;;;;;12.34;78.05;99449.22;1765364;80;20099;-65
2021/10/04 00:38:54;;;;;;;8.95;7.90;;;;;;;12.31;78.04;99448.46;1761657;80;21305;-65
2021/10/04 00:41:21;;;;;;;12.95;8.23;;;;;;;12.29;78.07;99454.28;1763122;80;20937;-65
2021/10/04 00:43:48;;;;;;;8.98;8.08;;;;;;;12.26;78.06;99447.89;1763210;79;20935;-65
2021/10/04 00:46:15;;;;;;;11.65;8.73;;;;;;;12.24;78.10;99452.39;1732271;81;21113;-65
2021/10/04 00:48:41;;;;;;;12.10;8.70;;;;;;;12.22;78.18;99447.70;1760644;79;20982;-65
2021/10/04 00:51:08;;;;;;;13.38;9.23;;;;;;;12.21;78.21;99443.41;1743490;80;21083;-65
2021/10/04 00:53:35;;;;;;;9.78;8.10;;;;;;;12.21;78.26;99446.03;1748236;81;20985;-65
2021/10/04 00:56:02;;;;;;;9.18;8.18;;;;;;;12.20;78.29;99453.48;1741600;81;21014;-65
2021/10/04 00:58:29;;;;;;;14.55;8.43;;;;;;;12.21;78.32;99448.65;1748778;81;21590;-65
2021/10/04 01:00:56;;;;;;;;;;;;;;;12.21;78.35;99447.78;1761665;79;21024;-65
2021/10/04 01:03:22;;;;;;;10.87;8.90;;;;;;;12.22;78.44;99449.48;1746309;81;21365;-65
2021/10/04 01:05:49;;;;;;;11.07;8.13;;;;;;;12.18;78.47;99443.56;1749234;81;21016;-65
2021/10/04 01:08:16;;;;;;;13.80;8.70;;;;;;;12.20;78.52;99445.63;1741137;81;21046;-65
2021/10/04 01:10:42;;;;;;;16.13;9.10;;;;;;;12.22;78.52;99445.09;1741717;81;20931;-65
2021/10/04 01:13:09;;;;;;;11.60;9.30;;;;;;;12.23;78.57;99441.52;1750578;81;21029;-65
2021/10/04 01:15:36;;;;;;;9.55;8.45;;;;;;;12.23;78.61;99436.29;1751242;81;21521;-65
2021/10/04 01:18:06;;;;;;;9.90;8.60;;;;;;;12.24;78.64;99443.23;1750639;81;20934;-65
2021/10/04 01:20:33;;;;;;;15.05;8.43;;;;;;;12.26;78.64;99440.03;1752071;81;21007;-65
2021/10/04 01:22:59;;;;;;;13.73;8.37;;;;;;;12.26;78.69;99433.48;1765899;81;21072;-65
2021/10/04 01:25:26;;;;;;;10.20;8.50;;;;;;;12.27;78.68;99441.73;1765136;81;21474;-65
2021/10/04 01:27:54;;;;;;;11.08;8.63;;;;;;;12.27;78.75;99436.98;1763428;81;21541;-65
2021/10/04 01:30:24;;;;;;;9.83;8.43;;;;;;;12.27;78.75;99440.43;1764518;81;20946;-65
2021/10/04 01:32:53;;;;;;;11.30;8.70;;;;;;;12.27;78.76;99431.27;1764685;81;21524;-65
2021/10/04 01:35:20;;;;;;;11.15;8.90;;;;;;;12.28;78.80;99421.63;1756296;81;21057;-65
2021/10/04 01:37:46;;;;;;;11.78;8.88;;;;;;;12.28;78.87;99426.39;1765757;81;21064;-65
2021/10/04 01:40:14;;;;;;;9.60;8.63;;;;;;;12.29;78.86;99422.86;1756667;81;21483;-65
2021/10/04 01:42:43;;;;;;;9.33;8.43;;;;;;;12.29;78.93;99418.94;1760386;81;21284;-65
2021/10/04 01:45:15;;;;;;;12.20;8.60;;;;;;;12.29;78.91;99403.23;1741748;81;21052;-65
2021/10/04 01:47:42;;;;;;;13.13;9.40;;;;;;;12.28;79.00;99396.29;1761285;81;20994;-65
2021/10/04 01:50:12;;;;;;;12.93;8.98;;;;;;;12.23;78.94;99399.64;1761485;81;20954;-65
2021/10/04 01:52:39;;;;;;;12.70;9.40;;;;;;;12.21;78.92;99409.83;1748027;81;21492;-65
2021/10/04 01:55:08;;;;;;;;;;;;;;;12.14;78.84;99408.52;1769470;79;20974;-65
2021/10/04 01:57:35;;;;;;;10.90;9.20;;;;;;;12.07;78.92;99417.17;1768502;81;20177;-65
2021/10/04 02:00:07;;;;;;;9.68;8.60;;;;;;;12.00;78.91;99416.70;1757320;80;26702;-65
2021/10/04 02:02:34;;;;;;;12.80;9.38;;;;;;;11.93;78.89;99421.92;1776729;80;20938;-65
2021/10/04 02:05:00;;;;;;;10.75;9.45;;;;;;;11.85;78.89;99435.44;1748814;81;21921;-65
2021/10/04 02:07:27;;;;;;;11.20;8.80;;;;;;;11.77;78.91;99428.93;1747398;80;20967;-65
2021/10/04 02:09:54;;;;;;;10.15;8.98;;;;;;;11.69;78.95;99434.59;1746157;81;21002;-65
2021/10/04 02:12:20;;;;;;;10.57;8.37;;;;;;;11.62;79.01;99441.08;1755176;80;21041;-65
2021/10/04 02:14:47;;;;;;;13.40;9.37;;;;;;;11.53;78.92;99443.74;1745904;80;21496;-65
2021/10/04 02:17:13;;;;;;;14.67;9.47;;;;;;;11.47;79.14;99451.09;1756205;81;21977;-64
2021/10/04 02:19:40;;;;;;;12.65;9.10;;;;;;;11.39;79.17;99451.04;1773310;80;21512;-65
2021/10/04 02:22:07;;;;;;;12.27;9.70;;;;;;;11.31;79.21;99450.61;1772793;80;20957;-65
2021/10/04 02:24:33;;;;;;;13.48;9.45;;;;;;;11.24;79.24;99449.28;1778559;80;21073;-65
2021/10/04 02:27:00;;;;;;;12.60;9.25;;;;;;;11.17;79.26;99447.47;1770584;80;20958;-65
2021/10/04 02:29:30;;;;;;;10.50;9.05;;;;;;;11.11;79.38;99444.33;1787534;80;22404;-65
2021/10/04 02:31:57;;;;;;;11.53;9.43;;;;;;;11.06;79.48;99438.06;1775092;80;20930;-65
2021/10/04 02:34:24;;;;;;;11.48;9.10;;;;;;;11.02;79.56;99442.21;1789207;80;20915;-65
2021/10/04 02:36:50;;;;;;;10.25;8.98;;;;;;;10.97;79.57;99444.59;1791992;80;21040;-65
2021/10/04 02:39:17;;;;;;;10.77;9.60;;;;;;;10.94;79.62;99455.67;1789528;80;20947;-65
2021/10/04 02:41:44;;;;;;;12.07;10.38;;;;;;;10.89;79.66;99450.69;1794051;80;21402;-65
2021/10/04 02:44:10;;;;;;;27.07;9.03;;;;;;;10.85;79.68;99456.17;1779410;80;21005;-64
2021/10/04 02:46:37;;;;;;;11.25;9.28;;;;;;;10.81;79.72;99460.72;1759761;81;20943;-65
2021/10/04 02:49:03;;;;;;;10.67;9.17;;;;;;;10.76;79.71;99460.11;1780183;80;20994;-65
2021/10/04 02:51:30;;;;;;;11.10;9.78;;;;;;;10.71;79.80;99467.33;1757158;81;21627;-65
2021/10/04 02:53:57;;;;;;;11.57;9.85;;;;;;;10.65;79.93;99463.74;1782452;80;21083;-64
2021/10/04 02:56:24;;;;;;;12.57;11.07;;;;;;;10.61;80.11;99463.50;1759412;81;20989;-65
2021/10/04 02:58:50;;;;;;;14.85;10.23;;;;;;;10.58;80.31;99468.88;1781763;80;21668;-65
2021/10/04 03:01:17;;;;;;;12.43;9.65;;;;;;;10.56;80.19;99470.72;1756461;81;20923;-65
2021/10/04 03:03:44;;;;;;;12.43;9.80;;;;;;;10.51;80.21;99477.03;1749764;80;20990;-65
2021/10/04 03:06:11;;;;;;;13.45;10.63;;;;;;;10.49;80.31;99476.25;1758102;81;21065;-65
2021/10/04 03:08:37;;;;;;;12.47;10.05;;;;;;;10.46;80.33;99485.55;1754931;80;21464;-65
2021/10/04 03:11:05;;;;;;;15.25;10.28;;;;;;;10.43;80.44;99481.80;1755969;80;21045;-65
2021/10/04 03:13:32;;;;;;;12.30;9.70;;;;;;;10.39;80.42;99493.33;1762160;81;21062;-65
2021/10/04 03:15:59;;;;;;;15.58;10.32;;;;;;;10.38;80.51;99485.55;1764792;80;20954;-65
2021/10/04 03:18:25;;;;;;;14.05;11.18;;;;;;;10.33;80.48;99475.34;1771230;80;22223;-64
2021/10/04 03:20:52;;;;;;;11.95;10.53;;;;;;;10.29;80.54;99489.47;1741975;81;20976;-64
2021/10/04 03:23:19;;;;;;;14.18;10.08;;;;;;;10.26;80.54;99486.98;1763739;80;20997;-65
2021/10/04 03:25:45;;;;;;;16.27;10.65;;;;;;;10.23;80.60;99488.45;1770424;80;21041;-65
2021/10/04 03:28:12;;;;;;;15.70;10.40;;;;;;;10.20;80.65;99487.30;1757825;80;20966;-65
2021/10/04 03:30:39;;;;;;;11.83;10.00;;;;;;;10.17;80.70;99487.45;1728239;82;22339;-65
2021/10/04 03:33:06;;;;;;;15.43;10.30;;;;;;;10.12;80.81;99490.27;1777443;79;22285;-65
2021/10/04 03:35:33;;;;;;;13.48;11.20;;;;;;;10.09;80.88;99488.66;1764804;80;21078;-65
2021/10/04 03:37:59;;;;;;;13.25;10.60;;;;;;;10.06;80.91;99487.51;1774065;79;21045;-64
2021/10/04 03:40:26;;;;;;;15.87;9.93;;;;;;;10.05;80.95;99501.91;1722170;81;21541;-64
2021/10/04 03:42:53;;;;;;;12.30;10.10;;;;;;;10.03;81.06;99506.38;1781185;79;21217;-65
2021/10/04 03:45:20;;;;;;;13.57;10.97;;;;;;;10.00;81.13;99507.38;1736829;80;21231;-65
2021/10/04 03:47:47;;;;;;;14.13;9.95;;;;;;;9.99;81.17;99504.36;1726061;81;21097;-65
2021/10/04 03:50:15;;;;;;;12.88;11.48;;;;;;;9.98;81.23;99514.42;1750830;80;20997;-65
2021/10/04 03:52:43;;;;;;;14.40;10.53;;;;;;;9.97;81.22;99516.66;1742023;81;21060;-65
2021/10/04 03:55:12;;;;;;;17.73;10.90;;;;;;;9.94;81.17;99507.67;1761816;80;21083;-65
2021/10/04 03:57:40;;;;;;;16.48;11.20;;;;;;;9.91;81.22;99509.09;1787695;79;21532;-65
2021/10/04 04:00:14;;;;;;;20.52;10.90;;;;;;;9.87;81.31;99508.88;1782632;79;20951;-65
2021/10/04 04:02:41;;;;;;;15.30;9.90;;;;;;;9.85;81.33;99518.52;1766694;80;21492;-65
2021/10/04 04:05:08;;;;;;;20.95;11.53;;;;;;;9.83;81.37;99511.22;1770728;79;21092;-64
2021/10/04 04:07:35;;;;;;;;;;;;;;;9.80;81.39;99513.98;1761721;80;21090;-65
2021/10/04 04:10:05;;;;;;;20.05;12.80;;;;;;;9.77;81.51;99514.97;1765165;80;20114;-65
2021/10/04 04:12:32;;;;;;;18.77;12.73;;;;;;;9.73;81.58;99519.11;1760669;80;21005;-65
2021/10/04 04:14:58;;;;;;;18.77;13.27;;;;;;;9.71;81.54;99526.99;1766325;80;21463;-64
2021/10/04 04:17:25;;;;;;;17.60;12.13;;;;;;;9.68;81.61;99521.92;1744312;81;21592;-65
2021/10/04 04:19:52;;;;;;;16.93;12.30;;;;;;;9.66;81.61;99530.73;1743958;81;21667;-65
2021/10/04 04:22:19;;;;;;;16.48;12.30;;;;;;;9.63;81.62;99537.80;1752717;80;20904;-65
2021/10/04 04:24:45;;;;;;;15.63;11.85;;;;;;;9.59;81.66;99540.14;1773765;79;21143;-65
2021/10/04 04:27:12;;;;;;;112.83;77.45;;;;;;;9.58;81.71;99537.16;1737011;81;20971;-65
2021/10/04 04:29:40;;;;;;;43.30;30.50;;;;;;;9.56;81.77;99531.16;1748509;80;20943;-65
2021/10/04 04:32:10;;;;;;;17.52;13.78;;;;;;;9.54;81.86;99534.30;1762614;81;21126;-64
2021/10/04 04:34:38;;;;;;;15.55;12.30;;;;;;;9.53;81.88;99531.77;1763003;81;20918;-64
2021/10/04 04:37:06;;;;;;;14.95;11.25;;;;;;;9.51;81.95;99538.34;1768223;81;20989;-65
2021/10/04 04:39:35;;;;;;;16.07;10.95;;;;;;;9.49;81.97;99532.35;1763230;81;21556;-64
2021/10/04 04:42:04;;;;;;;15.15;11.18;;;;;;;9.47;81.97;99531.59;1765553;81;20942;-64
2021/10/04 04:44:31;;;;;;;17.35;10.88;;;;;;;9.46;82.01;99539.01;1762751;81;21090;-64
2021/10/04 04:46:57;;;;;;;13.85;10.75;;;;;;;9.45;82.09;99541.23;1759466;81;21587;-64
2021/10/04 04:49:26;;;;;;;17.85;11.18;;;;;;;9.45;82.13;99551.66;1744477;81;20975;-65
2021/10/04 04:51:56;;;;;;;12.45;11.00;;;;;;;9.44;82.20;99547.81;1751613;81;20950;-64
2021/10/04 04:55:03;;;;;;;19.87;13.28;;;;;;;9.47;82.28;99551.14;1866030;76;22637;-64
2021/10/04 04:57:30;;;;;;;14.38;10.72;;;;;;;9.41;82.30;99559.25;1819625;78;20973;-64
2021/10/04 04:59:58;;;;;;;16.20;11.57;;;;;;;9.40;82.30;99562.28;1798555;78;21530;-64
2021/10/04 05:02:26;;;;;;;15.90;11.73;;;;;;;9.41;82.35;99556.17;1815168;77;20965;-64
2021/10/04 05:04:53;;;;;;;13.45;10.95;;;;;;;9.42;82.38;99554.41;1841162;77;20907;-65
2021/10/04 05:07:21;;;;;;;16.57;12.93;;;;;;;9.41;82.40;99556.17;1835457;78;20928;-64
2021/10/04 05:09:47;;;;;;;15.03;10.48;;;;;;;9.43;82.50;99558.70;1804611;77;20954;-64
2021/10/04 05:12:15;;;;;;;18.27;12.87;;;;;;;9.46;82.54;99553.34;1816768;77;20953;-65
2021/10/04 05:14:41;;;;;;;21.25;11.97;;;;;;;9.49;82.60;99557.11;1805431;77;20930;-65
2021/10/04 05:17:08;;;;;;;13.65;11.57;;;;;;;9.51;82.67;99553.98;1801626;78;21501;-65
2021/10/04 05:19:35;;;;;;;19.13;12.37;;;;;;;9.53;82.64;99554.77;1813984;77;21009;-65
2021/10/04 05:22:02;;;;;;;16.10;12.43;;;;;;;9.56;82.70;99562.45;1826119;78;20922;-64
2021/10/04 05:24:29;;;;;;;17.05;12.85;;;;;;;9.59;82.66;99568.82;1819199;77;21428;-65
2021/10/04 05:26:59;;;;;;;17.17;13.35;;;;;;;9.63;82.64;99560.39;1825036;77;20965;-65
2021/10/04 05:29:26;;;;;;;15.32;13.48;;;;;;;9.66;82.72;99560.25;1825697;77;20997;-64
2021/10/04 05:31:53;;;;;;;21.12;12.75;;;;;;;9.71;82.79;99563.49;1821951;77;20995;-64
2021/10/04 05:34:21;;;;;;;16.67;12.13;;;;;;;9.77;82.79;99566.28;1821045;77;22651;-64
2021/10/04 05:36:48;;;;;;;18.00;12.28;;;;;;;9.82;82.80;99569.52;1822700;77;21646;-64
2021/10/04 05:39:14;;;;;;;17.57;13.03;;;;;;;9.87;82.85;99574.07;1814285;78;20917;-64
2021/10/04 05:41:42;;;;;;;17.62;12.25;;;;;;;9.94;82.94;99570.27;1818115;77;28662;-64
2021/10/04 05:44:08;;;;;;;18.55;13.43;;;;;;;10.00;82.94;99567.36;1824434;77;20982;-64
2021/10/04 05:46:36;;;;;;;17.15;12.47;;;;;;;10.07;83.02;99571.36;1820575;77;20992;-64
2021/10/04 05:49:03;;;;;;;22.58;12.43;;;;;;;10.16;83.09;99575.28;1814823;77;22216;-65
2021/10/04 05:51:33;;;;;;;16.32;12.90;;;;;;;10.28;83.10;99581.73;1824846;77;21053;-64
2021/10/04 05:54:00;;;;;;;17.70;11.88;;;;;;;10.46;83.23;99589.13;1816945;77;20998;-64
2021/10/04 05:56:27;;;;;;;16.10;12.43;;;;;;;10.59;83.19;99581.55;1820697;77;20959;-65
2021/10/04 05:58:53;;;;;;;16.57;12.93;;;;;;;10.66;83.06;99576.39;1815333;77;20958;-64
2021/10/04 06:01:20;;;;;;;17.92;12.35;;;;;;;10.74;83.18;99576.85;1818146;77;21577;-64
2021/10/04 06:03:47;;;;;;;14.33;11.50;;;;;;;10.83;83.22;99581.60;1821606;77;20915;-64
2021/10/04 06:06:14;;;;;;;16.67;12.07;;;;;;;10.91;83.09;99586.45;1817757;78;20958;-64
2021/10/04 06:08:43;;;;;;;17.32;12.55;;;;;;;10.93;82.98;99595.06;1811009;78;21051;-64
2021/10/04 06:11:10;;;;;;;19.17;13.30;;;;;;;10.95;83.05;99607.13;1813296;77;21053;-65
2021/10/04 06:13:36;;;;;;;16.63;13.17;;;;;;;11.00;83.10;99602.11;1814732;77;21438;-65
2021/10/04 06:16:05;;;;;;;25.08;13.80;;;;;;;11.02;83.07;99596.36;1808318;77;20957;-66
2021/10/04 06:18:31;;;;;;;19.50;12.20;;;;;;;11.08;83.14;99602.10;1811551;77;20995;-65
2021/10/04 06:21:01;;;;;;;19.67;13.23;;;;;;;11.13;83.15;99603.18;1810730;77;21093;-65
2021/10/04 06:23:27;;;;;;;16.77;12.05;;;;;;;11.18;83.18;99599.88;1812450;77;21482;-65
2021/10/04 06:25:54;;;;;;;15.98;12.88;;;;;;;11.22;83.18;99604.00;1814376;77;21592;-66
2021/10/04 06:28:21;;;;;;;17.95;12.47;;;;;;;11.26;83.29;99605.55;1811912;77;20987;-66
2021/10/04 06:31:27;;;;;;;20.82;13.05;;;;;;;11.36;83.30;99606.74;1872000;74;22649;-65
2021/10/04 06:33:54;;;;;;;16.23;12.88;;;;;;;11.41;83.50;99617.81;1839151;76;27105;-65
2021/10/04 06:36:47;;;;;;;20.27;14.70;;;;;;;11.50;83.39;99622.17;1841602;77;21937;-65
2021/10/04 06:39:21;;;;;;;16.15;11.80;;;;;;;11.57;83.35;99615.24;1827479;77;20938;-66
2021/10/04 06:44:38;;;;;;;;;;;;;;;;;;;;;
2021/10/04 06:47:25;;;;;;;15.80;11.93;;;;;;;11.73;83.37;99624.88;1747655;80;20917;-66
2021/10/04 06:49:54;;;;;;;19.73;12.40;;;;;;;11.78;83.35;99621.08;1750697;80;21666;-66
2021/10/04 06:52:35;;;;;;;18.87;12.10;;;;;;;11.91;83.51;99623.92;1749413;80;21043;-65
2021/10/04 06:55:31;;;;;;;20.77;12.37;;;;;;;12.01;83.51;99632.10;1748461;80;21303;-66
2021/10/04 06:58:13;;;;;;;19.60;11.33;;;;;;;12.14;83.56;99635.75;1727430;80;22068;-66
2021/10/04 07:01:00;;;;;;;15.75;11.75;;;;;;;12.21;83.37;99628.39;1750911;80;20999;-65
2021/10/04 07:03:39;;;;;;;12.40;10.63;;;;;;;12.30;83.50;99628.73;1741147;80;21215;-67
2021/10/04 07:06:05;;;;;;;16.20;11.63;;;;;;;12.40;83.45;99636.06;1744267;80;21028;-67
2021/10/04 07:08:32;;;;;;;17.12;10.68;;;;;;;12.49;83.47;99630.30;1753878;80;21645;-67
2021/10/04 07:10:59;;;;;;;15.33;11.27;;;;;;;12.61;83.51;99620.93;1749110;80;21659;-66
2021/10/04 07:13:25;;;;;;;15.60;11.33;;;;;;;12.72;83.47;99624.61;1750393;80;20977;-67
2021/10/04 07:15:52;;;;;;;14.50;11.17;;;;;;;12.82;83.34;99628.00;1748012;80;21844;-66
2021/10/04 07:18:19;;;;;;;16.35;12.10;;;;;;;12.93;83.34;99632.16;1747702;80;21028;-66
2021/10/04 07:20:49;;;;;;;16.90;11.45;;;;;;;13.06;83.35;99641.47;1754443;80;20892;-65
2021/10/04 07:23:16;;;;;;;28.65;12.55;;;;;;;13.28;83.65;99647.16;1757345;80;21576;-65
2021/10/04 07:25:43;;;;;;;41.98;13.45;;;;;;;13.50;83.70;99655.03;1756331;80;21004;-66
2021/10/04 07:28:10;;;;;;;33.10;12.78;;;;;;;13.64;83.48;99646.72;1757589;80;21078;-65
2021/10/04 07:30:37;;;;;;;25.40;11.75;;;;;;;13.88;83.38;99652.69;1754662;80;20962;-65
2021/10/04 07:33:05;;;;;;;13.28;11.25;;;;;;;13.96;83.04;99655.69;1749295;80;21112;-65
2021/10/04 07:35:33;;;;;;;32.35;13.25;;;;;;;14.12;82.91;99652.13;1752360;80;21040;-66
2021/10/04 07:38:00;;;;;;;;;;;;;;;14.29;83.20;99654.52;1750798;80;21533;-65
2021/10/04 07:40:27;;;;;;;14.53;11.53;;;;;;;14.47;82.94;99654.63;1754910;80;21520;-66
2021/10/04 07:42:55;;;;;;;20.40;11.88;;;;;;;14.64;82.88;99650.11;1741940;80;20993;-66
2021/10/04 07:45:21;;;;;;;;;;;;;;;14.78;82.54;99659.23;1735910;81;20978;-65
2021/10/04 07:47:49;;;;;;;36.73;13.55;;;;;;;14.93;82.61;99658.25;1737391;81;20372;-65
2021/10/04 07:50:16;;;;;;;27.40;14.20;;;;;;;15.12;82.59;99672.78;1736011;81;21591;-65
2021/10/04 07:52:48;;;;;;;25.20;12.78;;;;;;;15.29;82.58;99667.25;1737610;81;21040;-65
2021/10/04 07:55:14;;;;;;;19.35;12.28;;;;;;;15.52;82.87;99667.48;1734371;81;22262;-65
2021/10/04 07:57:48;;;;;;;18.42;11.80;;;;;;;15.81;82.65;99668.95;1741385;81;20979;-64
2021/10/04 08:00:18;;;;;;;32.73;11.88;;;;;;;16.00;82.36;99672.94;1735977;81;20966;-64
2021/10/04 08:02:44;;;;;;;43.68;14.15;;;;;;;16.27;82.55;99667.03;1737937;81;21090;-65
2021/10/04 08:05:11;;;;;;;41.20;14.30;;;;;;;16.35;81.90;99657.23;1743818;81;21089;-65
2021/10/04 08:07:39;;;;;;;26.10;12.90;;;;;;;16.39;81.74;99653.92;1736406;81;21693;-66
2021/10/04 08:10:08;;;;;;;20.12;13.25;;;;;;;16.50;81.80;99652.66;1737265;81;21001;-66
2021/10/04 08:12:36;;;;;;;20.35;12.25;;;;;;;16.57;81.57;99656.52;1733562;81;21040;-67
2021/10/04 08:15:05;;;;;;;;;;;;;;;16.55;81.16;99657.09;1734756;81;21040;-66
2021/10/04 08:17:32;;;;;;;16.55;11.50;;;;;;;16.52;80.94;99656.88;1729188;81;21137;-65
2021/10/04 08:20:00;;;;;;;13.50;11.75;;;;;;;16.53;80.93;99649.32;1732427;81;20998;-66
2021/10/04 08:22:30;;;;;;;19.60;12.35;;;;;;;16.58;80.93;99655.59;1733213;81;20923;-65
2021/10/04 08:24:56;;;;;;;15.60;12.25;;;;;;;16.66;80.89;99658.47;1730927;81;21497;-66
2021/10/04 08:27:23;;;;;;;17.17;12.18;;;;;;;16.69;80.59;99650.37;1735906;81;20923;-66
2021/10/04 08:29:50;;;;;;;28.10;12.05;;;;;;;16.66;80.47;99637.38;1730259;81;21156;-66
2021/10/04 08:32:16;;;;;;;21.52;11.75;;;;;;;16.61;80.27;99634.27;1726788;81;21522;-65
2021/10/04 08:34:43;;;;;;;17.57;12.55;;;;;;;16.55;80.19;99638.20;1734653;81;20959;-64
2021/10/04 08:37:10;;;;;;;19.20;12.65;;;;;;;16.64;80.50;99640.63;1731536;81;21575;-64
2021/10/04 08:39:37;;;;;;;16.85;12.45;;;;;;;16.72;80.20;99642.68;1738971;81;20938;-64
2021/10/04 08:42:04;;;;;;;37.13;14.05;;;;;;;16.78;80.01;99656.30;1732085;81;21134;-64
2021/10/04 08:44:31;;;;;;;29.00;13.03;;;;;;;16.83;79.90;99653.78;1753051;80;21435;-64
2021/10/04 08:46:58;;;;;;;18.35;11.80;;;;;;;16.82;79.93;99634.97;1758198;80;24390;-64
2021/10/04 08:49:26;;;;;;;42.45;13.90;;;;;;;17.06;79.81;99654.73;1757501;80;21452;-65
2021/10/04 08:51:53;;;;;;;30.72;13.00;;;;;;;17.16;79.78;99659.17;1763929;80;21542;-66
2021/10/04 08:54:26;;;;;;;32.73;13.13;;;;;;;17.35;79.88;99657.78;1753957;80;21531;-66
2021/10/04 08:56:54;;;;;;;30.10;12.58;;;;;;;17.53;79.57;99657.70;1755079;80;21057;-66
2021/10/04 08:59:21;;;;;;;38.05;13.62;;;;;;;17.62;79.34;99660.95;1742201;80;21017;-66
2021/10/04 09:01:48;;;;;;;27.25;13.15;;;;;;;17.71;79.20;99669.11;1747887;80;21508;-66
2021/10/04 09:04:20;;;;;;;34.43;13.65;;;;;;;17.83;79.20;99664.22;1753127;80;21000;-66
2021/10/04 09:06:47;;;;;;;23.35;12.28;;;;;;;18.02;79.12;99663.13;1755685;80;21457;-66
2021/10/04 09:12:21;;;;;;;49.08;15.38;;;;;;;17.94;78.40;99664.21;1849242;76;27548;-66
2021/10/04 09:14:48;;;;;;;43.65;13.88;;;;;;;17.87;78.29;99670.47;1781920;77;20910;-66
2021/10/04 09:17:15;;;;;;;46.35;14.85;;;;;;;17.85;78.12;99666.27;1826582;77;21024;-66
2021/10/04 09:19:44;;;;;;;26.85;13.75;;;;;;;17.93;78.36;99663.03;1824486;77;20946;-66
2021/10/04 09:22:22;;;;;;;34.80;14.43;;;;;;;18.08;78.29;99665.28;1828556;77;21503;-66
2021/10/04 09:24:59;;;;;;;26.15;12.15;;;;;;;18.28;78.12;99669.45;1819020;77;20977;-67
2021/10/04 09:27:41;;;;;;;25.62;12.25;;;;;;;18.36;77.56;99664.39;1834931;77;21024;-67
2021/10/04 09:30:24;;;;;;;22.82;12.75;;;;;;;18.38;77.40;99658.52;1821545;77;21882;-67
2021/10/04 09:32:53;;;;;;;24.12;12.63;;;;;;;18.48;77.57;99662.08;1823228;77;21009;-67
2021/10/04 09:35:25;;;;;;;17.40;12.07;;;;;;;18.64;77.47;99666.13;1791353;77;21034;-68
2021/10/04 09:38:03;;;;;;;15.28;11.78;;;;;;;18.71;76.98;99660.71;1823637;77;21515;-66
2021/10/04 09:40:40;;;;;;;19.05;11.70;;;;;;;18.71;76.89;99662.03;1784609;78;21024;-67
2021/10/04 09:43:28;;;;;;;18.30;10.58;;;;;;;18.77;76.28;99661.55;1780814;78;21114;-67
2021/10/04 09:46:02;;;;;;;16.50;10.38;;;;;;;18.67;75.98;99663.23;1782909;79;20989;-67
2021/10/04 09:48:29;;;;;;;14.80;10.75;;;;;;;18.63;75.41;99659.17;1776222;78;21012;-67
2021/10/04 09:50:57;;;;;;;21.57;11.18;;;;;;;18.30;74.26;99666.22;1761777;79;21512;-67
2021/10/04 09:53:24;;;;;;;16.32;10.35;;;;;;;18.07;75.01;99666.25;1768794;79;21468;-67
2021/10/04 09:55:50;;;;;;;19.12;10.43;;;;;;;17.96;74.63;99663.62;1766643;79;21601;-66
2021/10/04 09:58:33;;;;;;;17.25;10.58;;;;;;;17.91;75.18;99659.17;1772778;79;21018;-66
2021/10/04 10:01:05;;;;;;;16.32;10.18;;;;;;;17.94;74.81;99668.17;1768780;79;20969;-66
2021/10/04 10:03:42;;;;;;;18.12;10.63;;;;;;;17.94;75.00;99662.89;1767285;79;20979;-66
2021/10/04 10:06:05;;;;;;;19.00;10.82;;;;;;;18.03;74.89;99663.48;1769308;79;21085;-67
2021/10/04 10:08:35;;;;;;;13.25;11.20;;;;;;;18.08;74.80;99669.24;1768772;79;21882;-67
2021/10/04 10:11:06;;;;;;;17.30;11.20;;;;;;;18.20;74.70;99671.38;1761976;79;20946;-66
2021/10/04 10:13:34;;;;;;;14.30;9.93;;;;;;;18.12;73.78;99663.25;1778670;79;21567;-66
2021/10/04 10:16:23;;;;;;;15.25;11.30;;;;;;;18.03;73.48;99660.00;1778550;79;21005;-66
2021/10/04 10:19:12;;;;;;;16.25;11.03;;;;;;;17.88;73.84;99658.09;1780861;79;21005;-67
2021/10/04 10:21:39;;;;;;;10.82;9.65;;;;;;;17.88;73.93;99663.38;1770657;79;21097;-66
2021/10/04 10:24:14;;;;;;;15.05;10.23;;;;;;;17.87;73.74;99678.39;1771971;79;20986;-66
2021/10/04 10:26:45;;;;;;;16.77;10.10;;;;;;;17.84;73.72;99684.38;1745054;79;20998;-66
2021/10/04 10:29:20;;;;;;;19.77;11.30;;;;;;;17.83;74.19;99693.27;1772660;79;21530;-66
2021/10/04 10:31:58;;;;;;;29.87;13.20;;;;;;;17.93;74.40;99703.48;1765022;79;21006;-65
2021/10/04 10:34:33;;;;;;;37.75;12.07;;;;;;;18.15;74.33;99704.42;1779435;79;21921;-65
2021/10/04 10:37:22;;;;;;;88.37;16.10;;;;;;;18.23;74.08;99707.30;1778906;79;21534;-68
2021/10/04 10:40:14;;;;;;;32.30;11.85;;;;;;;18.34;74.36;99711.25;1780097;79;21001;-65
2021/10/04 10:43:00;;;;;;;28.73;10.90;;;;;;;18.43;74.02;99713.19;1748951;80;21014;-64
2021/10/04 10:45:39;;;;;;;178.97;32.23;;;;;;;18.41;73.64;99720.39;1779927;79;20958;-65
2021/10/04 10:48:06;;;;;;;49.95;13.55;;;;;;;18.39;73.69;99724.95;1758912;80;21089;-65
2021/10/04 10:50:40;;;;;;;160.25;27.22;;;;;;;18.47;73.79;99729.14;1755568;80;21498;-65
2021/10/04 10:53:13;;;;;;;120.02;19.57;;;;;;;18.54;73.86;99732.98;1780859;79;20985;-65
2021/10/04 10:55:47;;;;;;;80.47;17.60;;;;;;;18.64;73.89;99736.20;1772678;79;22407;-65
2021/10/04 10:58:17;;;;;;;28.65;11.40;;;;;;;18.77;73.66;99739.58;1747756;79;20997;-64
2021/10/04 11:01:13;;;;;;;28.02;11.45;;;;;;;18.82;72.97;99738.73;1708344;81;21115;-64
2021/10/04 11:03:53;;;;;;;160.48;33.40;;;;;;;18.64;72.56;99737.53;1734179;81;20973;-64
2021/10/04 11:06:41;;;;;;;102.22;23.35;;;;;;;18.42;72.81;99743.69;1769775;79;21021;-64
2021/10/04 11:09:09;;;;;;;202.32;36.85;;;;;;;18.38;72.98;99743.10;1777195;79;21446;-65
2021/10/04 11:11:36;;;;;;;25.02;13.15;;;;;;;18.34;72.95;99741.65;1763081;79;21034;-65
2021/10/04 11:14:10;;;;;;;51.68;11.93;;;;;;;18.24;72.59;99741.55;1771142;79;21186;-65
2021/10/04 11:16:42;;;;;;;147.85;25.23;;;;;;;18.13;72.84;99735.44;1771914;79;21089;-65
2021/10/04 11:19:23;;;;;;;24.02;11.68;;;;;;;18.06;72.74;99730.63;1760978;79;20998;-65
2021/10/04 11:21:51;;;;;;;15.55;10.98;;;;;;;18.00;72.58;99723.16;1762078;79;20981;-65
2021/10/04 11:24:19;;;;;;;16.40;9.60;;;;;;;17.94;72.47;99732.06;1770305;79;20931;-65
2021/10/04 11:26:49;;;;;;;16.57;10.80;;;;;;;17.86;72.39;99737.92;1768311;79;21155;-65
2021/10/04 11:29:21;;;;;;;16.73;11.20;;;;;;;17.74;72.26;99748.09;1770347;79;21073;-64
2021/10/04 11:31:49;;;;;;;16.00;11.40;;;;;;;17.63;72.39;99752.38;1766513;79;21529;-64
2021/10/04 11:34:22;;;;;;;19.45;10.63;;;;;;;17.61;72.88;99750.33;1761337;79;21573;-65
2021/10/04 11:36:53;;;;;;;63.55;13.55;;;;;;;17.63;72.88;99758.98;1758483;79;22071;-65
2021/10/04 11:39:35;;;;;;;82.70;16.32;;;;;;;17.69;73.00;99761.64;1756747;79;21098;-65
2021/10/04 11:42:09;;;;;;;72.47;15.72;;;;;;;17.74;73.01;99756.02;1758054;79;20954;-64